createdAt,value
2023-03-06T00:01:06.951Z,6.15
2023-03-06T00:03:36.645Z,5.40
2023-03-06T00:06:06.672Z,7.13
2023-03-06T00:08:36.322Z,6.45
2023-03-06T00:11:07.293Z,4.85
2023-03-06T00:13:36.713Z,5.80
2023-03-06T00:16:08.306Z,5.97
2023-03-06T00:18:37.659Z,6.07
2023-03-06T00:21:10.463Z,5.25
2023-03-06T00:26:11.736Z,6.03
2023-03-06T00:28:41.187Z,5.95
2023-03-06T00:31:10.570Z,6.07
2023-03-06T00:33:39.902Z,6.70
2023-03-06T00:36:10.092Z,6.95
2023-03-06T00:38:39.622Z,8.98
2023-03-06T00:41:12.194Z,9.02
2023-03-06T00:43:41.650Z,8.00
2023-03-06T00:46:11.115Z,7.13
2023-03-06T00:50:30.070Z,8.32
2023-03-06T00:52:59.490Z,11.27
2023-03-06T00:55:29.613Z,8.27
2023-03-06T00:57:58.992Z,8.35
2023-03-06T01:00:28.488Z,8.43
2023-03-06T01:02:57.715Z,8.80
2023-03-06T01:05:28.495Z,9.43
2023-03-06T01:07:57.852Z,9.27
2023-03-06T01:10:27.506Z,8.65
2023-03-06T01:12:57.698Z,9.63
2023-03-06T01:15:27.810Z,9.25
2023-03-06T01:17:57.647Z,8.68
2023-03-06T01:20:28.732Z,8.23
2023-03-06T01:22:58.262Z,8.23
2023-03-06T01:25:28.436Z,7.75
2023-03-06T01:27:57.745Z,7.80
2023-03-06T01:30:27.110Z,7.40
2023-03-06T01:32:56.552Z,7.55
2023-03-06T01:35:25.911Z,7.47
2023-03-06T01:37:56.735Z,7.40
2023-03-06T01:40:26.292Z,6.85
2023-03-06T01:42:56.206Z,5.63
2023-03-06T01:46:25.856Z,7.05
2023-03-06T01:48:58.953Z,6.22
2023-03-06T01:51:34.074Z,7.35
2023-03-06T01:54:10.889Z,5.88
2023-03-06T01:56:42.479Z,5.82
2023-03-06T01:59:12.020Z,6.45
2023-03-06T02:01:42.288Z,6.65
2023-03-06T02:04:12.792Z,7.13
2023-03-06T02:06:44.541Z,7.57
2023-03-06T02:09:16.761Z,6.45
2023-03-06T02:11:46.536Z,7.20
2023-03-06T02:14:19.159Z,6.60
2023-03-06T02:16:48.651Z,7.38
2023-03-06T02:19:36.931Z,6.40
2023-03-06T02:22:06.547Z,8.35
2023-03-06T02:24:46.974Z,10.95
2023-03-06T02:27:18.952Z,8.70
2023-03-06T02:29:49.111Z,8.47
2023-03-06T02:32:18.573Z,11.35
2023-03-06T02:34:58.401Z,9.38
2023-03-06T02:37:30.074Z,7.32
2023-03-06T02:40:09.314Z,9.25
2023-03-06T02:42:40.081Z,7.70
2023-03-06T02:45:13.151Z,7.68
2023-03-06T02:47:42.408Z,8.20
2023-03-06T02:50:13.284Z,7.18
2023-03-06T02:52:42.698Z,6.88
2023-03-06T02:55:12.538Z,7.20
2023-03-06T02:57:43.547Z,7.00
2023-03-06T03:00:16.126Z,6.20
2023-03-06T03:02:46.406Z,8.30
2023-03-06T03:05:16.085Z,13.60
2023-03-06T03:07:45.600Z,14.10
2023-03-06T03:10:15.432Z,15.57
2023-03-06T03:12:46.445Z,12.45
2023-03-06T03:15:15.916Z,14.05
2023-03-06T03:17:45.582Z,8.70
2023-03-06T03:20:19.237Z,10.45
2023-03-06T03:22:51.394Z,8.52
2023-03-06T03:25:22.019Z,12.88
2023-03-06T03:27:53.306Z,13.65
2023-03-06T03:30:23.031Z,13.02
2023-03-06T03:32:52.376Z,13.70
2023-03-06T03:35:21.929Z,9.45
2023-03-06T03:37:52.837Z,6.13
2023-03-06T03:40:22.420Z,9.23
2023-03-06T03:42:53.295Z,9.73
2023-03-06T03:45:24.369Z,10.25
2023-03-06T03:47:53.810Z,8.73
2023-03-06T03:51:30.008Z,9.23
2023-03-06T03:53:59.419Z,8.23
2023-03-06T03:56:28.869Z,8.95
2023-03-06T03:58:58.443Z,7.97
2023-03-06T04:01:27.670Z,7.10
2023-03-06T04:03:57.106Z,8.63
2023-03-06T04:06:26.489Z,10.82
2023-03-06T04:08:57.637Z,12.70
2023-03-06T04:11:26.991Z,13.25
2023-03-06T04:13:56.249Z,6.85
2023-03-06T04:16:25.687Z,6.78
2023-03-06T04:18:55.277Z,8.65
2023-03-06T04:21:24.529Z,17.42
2023-03-06T04:23:53.808Z,19.45
2023-03-06T04:26:24.728Z,16.65
2023-03-06T04:28:55.759Z,14.88
2023-03-06T04:31:25.370Z,15.48
2023-03-06T04:33:55.486Z,11.73
2023-03-06T04:36:30.651Z,11.88
2023-03-06T04:39:00.816Z,11.38
2023-03-06T04:41:31.646Z,8.60
2023-03-06T04:44:01.351Z,8.73
2023-03-06T04:46:30.651Z,12.65
2023-03-06T04:49:00.047Z,11.43
2023-03-06T04:51:29.742Z,12.45
2023-03-06T04:53:59.327Z,9.32
2023-03-06T04:56:28.919Z,10.82
2023-03-06T04:58:59.943Z,9.50
2023-03-06T05:01:29.531Z,10.57
2023-03-06T05:03:59.094Z,8.38
2023-03-06T05:06:28.613Z,9.55
2023-03-06T05:08:58.030Z,10.27
2023-03-06T05:11:27.706Z,8.52
2023-03-06T05:13:58.505Z,9.20
2023-03-06T05:16:27.979Z,9.02
2023-03-06T05:18:57.436Z,9.52
2023-03-06T05:21:26.748Z,8.45
2023-03-06T05:23:56.185Z,11.07
2023-03-06T05:26:25.685Z,13.32
2023-03-06T05:28:55.551Z,15.35
2023-03-06T05:31:26.438Z,13.75
2023-03-06T05:33:55.835Z,13.07
2023-03-06T05:36:25.188Z,14.98
2023-03-06T05:38:54.828Z,17.77
2023-03-06T05:41:24.395Z,27.95
2023-03-06T05:43:57.178Z,24.23
2023-03-06T05:46:28.264Z,19.00
2023-03-06T05:48:58.121Z,17.30
2023-03-06T05:51:28.018Z,13.75
2023-03-06T05:53:57.499Z,12.35
2023-03-06T05:56:27.089Z,11.65
2023-03-06T05:58:56.473Z,9.82
2023-03-06T06:01:28.670Z,6.50
2023-03-06T06:03:58.117Z,7.82
2023-03-06T06:06:27.636Z,14.27
2023-03-06T06:08:56.951Z,14.73
2023-03-06T06:11:26.355Z,16.48
2023-03-06T06:13:55.716Z,16.85
2023-03-06T06:16:26.489Z,12.98
2023-03-06T06:18:55.811Z,16.00
2023-03-06T06:21:25.209Z,10.55
2023-03-06T06:23:54.435Z,11.38
2023-03-06T06:26:23.806Z,8.82
2023-03-06T06:28:53.150Z,17.90
2023-03-06T06:31:22.595Z,20.13
2023-03-06T06:33:53.475Z,13.02
2023-03-06T06:36:23.827Z,12.57
2023-03-06T06:38:53.612Z,8.82
2023-03-06T06:44:16.297Z,7.53
2023-03-06T06:51:32.449Z,7.03
2023-03-06T06:54:03.379Z,5.05
2023-03-06T06:56:32.821Z,5.15
2023-03-06T06:59:15.701Z,5.50
2023-03-06T07:01:46.068Z,5.35
2023-03-06T07:04:15.786Z,5.20
2023-03-06T07:06:46.965Z,5.35
2023-03-06T07:09:16.521Z,5.63
2023-03-06T07:11:46.016Z,5.32
2023-03-06T07:14:15.488Z,5.93
2023-03-06T07:16:44.890Z,5.43
2023-03-06T07:19:14.420Z,5.30
2023-03-06T07:21:45.431Z,5.38
2023-03-06T07:24:14.830Z,3.90
2023-03-06T07:26:48.708Z,5.40
2023-03-06T07:29:18.080Z,4.93
2023-03-06T07:31:48.140Z,4.38
2023-03-06T07:34:17.951Z,5.13
2023-03-06T07:36:48.856Z,4.55
2023-03-06T07:39:18.194Z,5.32
2023-03-06T07:41:47.688Z,4.72
2023-03-06T07:44:17.185Z,5.15
2023-03-06T07:46:46.637Z,5.50
2023-03-06T07:49:16.195Z,4.93
2023-03-06T07:51:45.618Z,5.05
2023-03-06T07:54:16.342Z,4.50
2023-03-06T07:56:45.720Z,4.90
2023-03-06T07:59:15.203Z,5.00
2023-03-06T08:01:44.569Z,4.78
2023-03-06T08:04:13.908Z,4.18
2023-03-06T08:06:43.338Z,6.50
2023-03-06T08:09:12.818Z,5.82
2023-03-06T08:11:45.478Z,4.88
2023-03-06T08:14:14.817Z,4.53
2023-03-06T08:16:44.165Z,5.45
2023-03-06T08:19:13.471Z,3.95
2023-03-06T08:21:42.793Z,4.65
2023-03-06T08:24:13.376Z,4.88
2023-03-06T08:26:44.723Z,5.20
2023-03-06T08:29:14.370Z,4.75
2023-03-06T08:31:45.595Z,4.28
2023-03-06T08:34:18.352Z,5.70
2023-03-06T08:36:47.986Z,4.82
2023-03-06T08:39:17.369Z,6.10
2023-03-06T08:41:48.341Z,5.88
2023-03-06T08:44:17.888Z,4.75
2023-03-06T08:46:47.269Z,5.93
2023-03-06T08:49:17.091Z,6.38
2023-03-06T08:51:46.623Z,5.80
2023-03-06T08:54:16.088Z,5.55
2023-03-06T08:56:47.040Z,5.47
2023-03-06T08:59:16.675Z,4.40
2023-03-06T09:01:46.827Z,5.70
2023-03-06T09:04:16.290Z,5.13
2023-03-06T09:06:46.539Z,4.40
2023-03-06T09:09:16.192Z,4.78
2023-03-06T09:11:47.232Z,4.80
2023-03-06T09:14:16.971Z,5.32
2023-03-06T09:16:46.337Z,5.00
2023-03-06T09:19:16.050Z,4.28
2023-03-06T09:21:45.378Z,5.00
2023-03-06T09:24:14.862Z,4.43
2023-03-06T09:26:46.659Z,5.05
2023-03-06T09:29:18.075Z,5.47
2023-03-06T09:31:47.758Z,5.03
2023-03-06T09:34:17.568Z,5.55
2023-03-06T09:36:56.631Z,4.38
2023-03-06T09:39:27.847Z,4.22
2023-03-06T09:41:58.799Z,5.25
2023-03-06T09:44:32.359Z,5.45
2023-03-06T09:47:45.462Z,4.25
2023-03-06T09:51:42.863Z,3.67
2023-03-06T09:54:16.004Z,3.75
2023-03-06T09:56:51.312Z,3.65
2023-03-06T09:59:24.874Z,4.28
2023-03-06T10:02:03.421Z,4.38
2023-03-06T10:04:40.898Z,4.10
2023-03-06T10:07:17.240Z,4.57
2023-03-06T10:09:54.044Z,5.15
2023-03-06T10:12:28.789Z,5.03
2023-03-06T10:15:13.688Z,4.43
2023-03-06T10:17:44.487Z,6.65
2023-03-06T10:20:27.610Z,5.38
2023-03-06T10:23:37.090Z,4.55
2023-03-06T10:26:17.197Z,4.53
2023-03-06T10:28:56.243Z,4.07
2023-03-06T10:31:27.399Z,4.65
2023-03-06T10:33:58.798Z,4.70
2023-03-06T10:36:31.013Z,4.13
2023-03-06T10:39:02.440Z,3.90
2023-03-06T10:41:36.028Z,4.00
2023-03-06T10:44:28.223Z,3.75
2023-03-06T10:46:57.701Z,4.53
2023-03-06T10:49:36.482Z,3.72
2023-03-06T10:52:09.064Z,4.38
2023-03-06T10:54:43.116Z,4.82
2023-03-06T10:57:28.177Z,4.10
2023-03-06T10:59:59.632Z,4.38
2023-03-06T11:02:36.815Z,3.90
2023-03-06T11:05:08.516Z,4.55
2023-03-06T11:07:43.040Z,4.35
2023-03-06T11:10:21.043Z,4.22
2023-03-06T11:13:01.609Z,4.05
2023-03-06T11:15:32.304Z,4.13
2023-03-06T11:18:05.700Z,3.17
2023-03-06T11:20:51.531Z,3.50
2023-03-06T11:23:32.617Z,4.15
2023-03-06T11:26:22.336Z,3.85
2023-03-06T11:29:04.688Z,3.75
2023-03-06T11:31:36.948Z,4.82
2023-03-06T11:34:17.816Z,4.47
2023-03-06T11:36:56.021Z,5.30
2023-03-06T11:39:36.546Z,4.32
2023-03-06T11:42:17.446Z,5.03
2023-03-06T11:45:00.302Z,4.55
2023-03-06T11:47:35.284Z,4.85
2023-03-06T11:50:21.164Z,5.18
2023-03-06T11:52:56.356Z,4.70
2023-03-06T11:55:46.790Z,4.72
2023-03-06T11:59:08.283Z,4.72
2023-03-06T12:01:43.077Z,4.45
2023-03-06T12:04:40.352Z,5.68
2023-03-06T12:07:23.304Z,4.95
2023-03-06T12:12:57.757Z,4.68
2023-03-06T12:15:52.430Z,4.85
2023-03-06T12:18:36.818Z,6.10
2023-03-06T12:21:14.073Z,5.13
2023-03-06T12:24:12.813Z,4.45
2023-03-06T12:27:02.348Z,4.72
2023-03-06T12:29:53.326Z,3.92
2023-03-06T12:32:40.844Z,3.47
2023-03-06T12:35:43.574Z,3.72
2023-03-06T12:38:53.956Z,3.30
2023-03-06T12:41:45.214Z,3.42
2023-03-06T12:44:44.564Z,3.97
2023-03-06T12:47:18.763Z,3.35
2023-03-06T12:51:30.330Z,2.92
2023-03-06T12:54:01.777Z,3.58
2023-03-06T12:56:33.478Z,3.30
2023-03-06T12:59:03.625Z,4.03
2023-03-06T13:02:03.133Z,3.10
2023-03-06T13:04:53.430Z,4.07
2023-03-06T13:07:49.466Z,3.72
2023-03-06T13:10:27.173Z,3.08
2023-03-06T13:13:00.987Z,3.17
2023-03-06T13:15:41.550Z,3.80
2023-03-06T13:19:03.170Z,3.35
2023-03-06T13:22:04.661Z,9.70
2023-03-06T13:24:38.440Z,3.65
2023-03-06T13:27:11.724Z,3.60
2023-03-06T13:30:23.591Z,3.08
2023-03-06T13:32:54.385Z,3.45
2023-03-06T13:35:57.848Z,2.88
2023-03-06T13:38:37.896Z,3.78
2023-03-06T13:41:44.079Z,5.03
2023-03-06T13:44:51.193Z,4.47
2023-03-06T13:48:10.672Z,4.00
2023-03-06T13:50:40.422Z,4.22
2023-03-06T13:54:04.708Z,4.57
2023-03-06T13:57:26.409Z,4.70
2023-03-06T14:00:34.255Z,3.97
2023-03-06T14:03:48.631Z,3.88
2023-03-06T14:07:01.506Z,4.88
2023-03-06T14:09:35.907Z,3.55
2023-03-06T14:12:15.675Z,4.05
2023-03-06T14:14:52.723Z,5.25
2023-03-06T14:17:30.445Z,4.00
2023-03-06T14:20:09.965Z,6.40
2023-03-06T14:22:39.409Z,4.03
2023-03-06T14:25:18.893Z,4.53
2023-03-06T14:27:53.522Z,6.95
2023-03-06T14:30:26.940Z,5.55
2023-03-06T14:32:57.765Z,5.20
2023-03-06T14:35:31.746Z,5.90
2023-03-06T14:38:06.290Z,5.65
2023-03-06T14:40:42.506Z,6.38
2023-03-06T14:43:21.908Z,8.27
2023-03-06T14:45:57.949Z,7.20
2023-03-06T14:48:39.818Z,9.23
2023-03-06T14:51:16.763Z,10.40
2023-03-06T14:53:48.743Z,7.50
2023-03-06T14:56:21.938Z,11.13
2023-03-06T14:58:57.356Z,6.28
2023-03-06T15:01:37.783Z,5.55
2023-03-06T15:04:20.032Z,5.78
2023-03-06T15:06:49.531Z,7.07
2023-03-06T15:09:24.517Z,5.25
2023-03-06T15:11:57.616Z,5.32
2023-03-06T15:14:35.018Z,5.75
2023-03-06T15:17:30.051Z,6.38
2023-03-06T15:20:01.765Z,5.25
2023-03-06T15:22:38.004Z,5.43
2023-03-06T15:25:24.236Z,5.82
2023-03-06T15:28:04.107Z,5.20
2023-03-06T15:30:35.680Z,4.40
2023-03-06T15:33:24.267Z,4.07
2023-03-06T15:35:58.413Z,4.32
2023-03-06T15:38:36.948Z,4.93
2023-03-06T15:41:08.733Z,5.15
2023-03-06T15:43:41.510Z,4.30
2023-03-06T15:51:30.050Z,3.70
2023-03-06T15:54:11.246Z,4.40
2023-03-06T15:56:43.411Z,3.83
2023-03-06T15:59:21.810Z,5.63
2023-03-06T16:01:52.536Z,4.10
2023-03-06T16:04:22.201Z,3.78
2023-03-06T16:06:53.265Z,3.83
2023-03-06T16:09:23.252Z,3.95
2023-03-06T16:11:52.706Z,4.18
2023-03-06T16:14:24.213Z,4.75
2023-03-06T16:16:54.987Z,4.70
2023-03-06T16:19:27.554Z,4.63
2023-03-06T16:22:00.020Z,3.63
2023-03-06T16:24:29.460Z,3.50
2023-03-06T16:27:02.743Z,4.60
2023-03-06T16:29:32.905Z,5.15
2023-03-06T16:32:02.632Z,4.30
2023-03-06T16:34:32.111Z,4.65
2023-03-06T16:37:02.968Z,4.55
2023-03-06T16:39:32.445Z,4.97
2023-03-06T16:42:01.675Z,5.05
2023-03-06T16:44:31.289Z,6.07
2023-03-06T16:47:03.200Z,6.93
2023-03-06T16:49:32.458Z,6.63
2023-03-06T16:52:04.739Z,4.85
2023-03-06T16:54:34.320Z,5.15
2023-03-06T16:57:03.652Z,5.35
2023-03-06T16:59:33.116Z,4.85
2023-03-06T17:02:02.462Z,6.65
2023-03-06T17:04:31.811Z,5.25
2023-03-06T17:07:02.657Z,6.03
2023-03-06T17:09:31.912Z,5.20
2023-03-06T17:12:01.377Z,5.43
2023-03-06T17:14:31.197Z,4.82
2023-03-06T17:17:00.540Z,4.90
2023-03-06T17:19:30.994Z,5.25
2023-03-06T17:22:01.730Z,5.22
2023-03-06T17:24:31.076Z,4.60
2023-03-06T17:27:00.493Z,4.93
2023-03-06T17:29:29.872Z,4.57
2023-03-06T17:31:59.220Z,5.13
2023-03-06T17:34:29.552Z,4.10
2023-03-06T17:36:59.025Z,4.90
2023-03-06T17:39:34.612Z,4.72
2023-03-06T17:42:04.134Z,4.40
2023-03-06T17:44:34.590Z,4.63
2023-03-06T17:47:04.354Z,5.22
2023-03-06T17:49:34.200Z,5.65
2023-03-06T17:52:05.867Z,6.13
2023-03-06T17:54:36.711Z,4.72
2023-03-06T17:57:06.834Z,5.97
2023-03-06T17:59:36.249Z,6.97
2023-03-06T18:02:06.684Z,6.05
2023-03-06T18:04:36.114Z,5.43
2023-03-06T18:07:05.705Z,5.95
2023-03-06T18:09:36.387Z,13.43
2023-03-06T18:12:06.169Z,7.97
2023-03-06T18:14:37.247Z,5.97
2023-03-06T18:17:06.706Z,19.60
2023-03-06T18:19:36.082Z,8.35
2023-03-06T18:22:05.524Z,7.18
2023-03-06T18:24:38.967Z,10.00
2023-03-06T18:27:08.379Z,9.38
2023-03-06T18:29:37.784Z,10.52
2023-03-06T18:32:09.462Z,12.70
2023-03-06T18:34:39.493Z,10.55
2023-03-06T18:37:08.923Z,8.38
2023-03-06T18:39:39.662Z,9.88
2023-03-06T18:42:09.767Z,10.07
2023-03-06T18:44:39.174Z,11.02
2023-03-06T18:47:08.670Z,11.80
2023-03-06T18:51:30.173Z,10.73
2023-03-06T18:53:59.786Z,12.40
2023-03-06T18:56:29.347Z,11.82
2023-03-06T18:59:01.798Z,13.30
2023-03-06T19:01:31.543Z,13.27
2023-03-06T19:04:03.509Z,11.75
2023-03-06T19:06:34.769Z,10.57
2023-03-06T19:09:04.240Z,12.85
2023-03-06T19:11:34.414Z,9.82
2023-03-06T19:14:03.902Z,10.30
2023-03-06T19:16:33.446Z,11.68
2023-03-06T19:19:02.814Z,11.68
2023-03-06T19:21:33.624Z,12.95
2023-03-06T19:24:04.721Z,13.73
2023-03-06T19:26:34.180Z,12.13
2023-03-06T19:29:04.078Z,13.20
2023-03-06T19:31:33.535Z,12.50
2023-03-06T19:34:02.921Z,12.02
2023-03-06T19:36:34.489Z,11.27
2023-03-06T19:39:07.180Z,13.32
2023-03-06T19:41:36.908Z,11.15
2023-03-06T19:44:07.006Z,13.95
2023-03-06T19:46:36.432Z,13.45
2023-03-06T19:49:11.939Z,11.43
2023-03-06T19:51:42.739Z,8.18
2023-03-06T19:54:13.826Z,11.93
2023-03-06T19:56:43.140Z,13.30
2023-03-06T19:59:12.683Z,13.20
2023-03-06T20:01:42.350Z,12.85
2023-03-06T20:04:11.901Z,8.27
2023-03-06T20:06:45.579Z,9.05
2023-03-06T20:09:15.267Z,14.98
2023-03-06T20:11:44.688Z,15.23
2023-03-06T20:14:18.551Z,16.92
2023-03-06T20:16:47.914Z,13.10
2023-03-06T20:19:17.935Z,13.68
2023-03-06T20:21:48.939Z,14.75
2023-03-06T20:24:19.409Z,10.25
2023-03-06T20:26:51.361Z,8.38
2023-03-06T20:29:20.750Z,12.27
2023-03-06T20:31:50.036Z,15.35
2023-03-06T20:34:19.607Z,10.85
2023-03-06T20:36:50.359Z,14.55
2023-03-06T20:39:22.625Z,8.38
2023-03-06T20:41:52.508Z,8.13
2023-03-06T20:44:23.232Z,13.15
2023-03-06T20:46:53.265Z,10.75
2023-03-06T20:49:23.028Z,11.75
2023-03-06T20:51:53.830Z,12.60
2023-03-06T20:54:23.317Z,11.20
2023-03-06T20:56:52.791Z,12.50
2023-03-06T20:59:22.113Z,12.13
2023-03-06T21:01:51.640Z,9.48
2023-03-06T21:04:21.069Z,8.63
2023-03-06T21:06:50.480Z,11.77
2023-03-06T21:09:21.375Z,12.57
2023-03-06T21:11:50.873Z,11.75
2023-03-06T21:14:20.310Z,13.45
2023-03-06T21:16:49.611Z,11.75
2023-03-06T21:19:20.310Z,9.48
2023-03-06T21:21:50.453Z,10.45
2023-03-06T21:24:21.483Z,9.82
2023-03-06T21:26:51.481Z,10.15
2023-03-06T21:29:20.775Z,7.53
2023-03-06T21:31:50.252Z,7.13
2023-03-06T21:34:19.630Z,6.35
2023-03-06T21:36:49.013Z,6.68
2023-03-06T21:39:21.212Z,6.45
2023-03-06T21:41:50.613Z,6.00
2023-03-06T21:44:20.019Z,4.85
2023-03-06T21:46:49.318Z,5.80
2023-03-06T21:51:29.935Z,5.50
2023-03-06T21:53:59.341Z,5.53
2023-03-06T21:56:28.754Z,6.00
2023-03-06T21:58:58.885Z,5.25
2023-03-06T22:01:30.250Z,5.40
2023-03-06T22:04:01.287Z,5.00
2023-03-06T22:06:33.058Z,5.97
2023-03-06T22:09:04.537Z,5.50
2023-03-06T22:11:37.503Z,5.13
2023-03-06T22:14:07.251Z,5.22
2023-03-06T22:16:36.696Z,5.00
2023-03-06T22:19:06.307Z,5.10
2023-03-06T22:21:37.137Z,5.18
2023-03-06T22:24:07.713Z,4.40
2023-03-06T22:26:37.212Z,5.35
2023-03-06T22:29:06.492Z,5.70
2023-03-06T22:31:36.099Z,5.35
2023-03-06T22:34:05.511Z,5.95
2023-03-06T22:36:36.415Z,6.93
2023-03-06T22:39:06.508Z,5.53
2023-03-06T22:41:35.847Z,5.15
2023-03-06T22:44:05.430Z,5.32
2023-03-06T22:46:35.745Z,4.60
2023-03-06T22:49:05.343Z,4.38
2023-03-06T22:51:37.727Z,4.28
2023-03-06T22:54:08.437Z,4.30
2023-03-06T22:56:38.219Z,4.43
2023-03-06T22:59:08.213Z,4.35
2023-03-06T23:01:37.891Z,4.85
2023-03-06T23:04:11.406Z,4.15
2023-03-06T23:06:44.837Z,4.10
2023-03-06T23:09:18.410Z,4.80
2023-03-06T23:11:47.871Z,4.35
2023-03-06T23:14:19.201Z,4.72
2023-03-06T23:16:48.873Z,4.35
2023-03-06T23:19:18.671Z,4.45
2023-03-06T23:21:49.952Z,5.47
2023-03-06T23:24:19.333Z,4.60
2023-03-06T23:26:48.683Z,4.13
2023-03-06T23:29:18.068Z,4.70
2023-03-06T23:31:47.762Z,4.40
2023-03-06T23:34:17.132Z,4.32
2023-03-06T23:36:47.971Z,6.00
2023-03-06T23:39:17.474Z,5.32
2023-03-06T23:41:46.979Z,6.72
2023-03-06T23:44:16.333Z,7.57
2023-03-06T23:46:45.710Z,7.13
2023-03-06T23:49:15.293Z,5.43
2023-03-06T23:51:44.840Z,4.70
2023-03-06T23:54:15.732Z,5.35
2023-03-06T23:56:45.001Z,4.35
2023-03-06T23:59:14.496Z,4.80
